sensor_id;sensor_type;location;lat;lon;timestamp;P1;durP1;ratioP1;P2;durP2;ratioP2
63699;SDS011;49845;47.130;142.766;2022-09-27T00:00:13;4.57;;;1.60;;
63699;SDS011;49845;47.130;142.766;2022-09-27T00:03:02;7.10;;;1.37;;
63699;SDS011;49845;47.130;142.766;2022-09-27T00:05:47;5.07;;;1.63;;
63699;SDS011;49845;47.130;142.766;2022-09-27T00:08:36;8.55;;;1.52;;
63699;SDS011;49845;47.130;142.766;2022-09-27T00:11:19;5.60;;;1.13;;
63699;SDS011;49845;47.130;142.766;2022-09-27T00:14:07;5.23;;;1.67;;
63699;SDS011;49845;47.130;142.766;2022-09-27T00:16:50;9.40;;;1.33;;
63699;SDS011;49845;47.130;142.766;2022-09-27T00:19:34;7.70;;;1.10;;
63699;SDS011;49845;47.130;142.766;2022-09-27T00:22:29;7.67;;;1.50;;
63699;SDS011;49845;47.130;142.766;2022-09-27T00:25:25;14.13;;;1.50;;
63699;SDS011;49845;47.130;142.766;2022-09-27T00:28:14;4.65;;;1.00;;
63699;SDS011;49845;47.130;142.766;2022-09-27T00:31:08;7.17;;;1.40;;
63699;SDS011;49845;47.130;142.766;2022-09-27T00:34:05;5.73;;;1.10;;
63699;SDS011;49845;47.130;142.766;2022-09-27T00:36:49;2.70;;;1.10;;
63699;SDS011;49845;47.130;142.766;2022-09-27T00:39:25;3.70;;;0.93;;
63699;SDS011;49845;47.130;142.766;2022-09-27T00:42:09;5.13;;;1.17;;
63699;SDS011;49845;47.130;142.766;2022-09-27T00:48:06;2.67;;;0.90;;
63699;SDS011;49845;47.130;142.766;2022-09-27T00:50:50;5.77;;;0.80;;
63699;SDS011;49845;47.130;142.766;2022-09-27T00:53:38;4.40;;;0.80;;
63699;SDS011;49845;47.130;142.766;2022-09-27T00:56:35;3.53;;;0.93;;
63699;SDS011;49845;47.130;142.766;2022-09-27T00:59:31;7.17;;;1.53;;
63699;SDS011;49845;47.130;142.766;2022-09-27T01:02:14;34.70;;;2.70;;
63699;SDS011;49845;47.130;142.766;2022-09-27T01:07:53;13.55;;;1.35;;
63699;SDS011;49845;47.130;142.766;2022-09-27T01:11:05;3.17;;;0.97;;
63699;SDS011;49845;47.130;142.766;2022-09-27T01:17:18;3.13;;;0.80;;
63699;SDS011;49845;47.130;142.766;2022-09-27T01:23:57;6.97;;;1.00;;
63699;SDS011;49845;47.130;142.766;2022-09-27T01:30:21;2.97;;;0.80;;
63699;SDS011;49845;47.130;142.766;2022-09-27T01:33:47;3.72;;;0.70;;
63699;SDS011;49845;47.130;142.766;2022-09-27T01:36:30;5.97;;;1.07;;
63699;SDS011;49845;47.130;142.766;2022-09-27T01:39:29;20.73;;;1.93;;
63699;SDS011;49845;47.130;142.766;2022-09-27T01:42:19;2.67;;;1.20;;
63699;SDS011;49845;47.130;142.766;2022-09-27T01:45:16;8.80;;;1.00;;
63699;SDS011;49845;47.130;142.766;2022-09-27T01:48:19;3.00;;;0.80;;
63699;SDS011;49845;47.130;142.766;2022-09-27T01:50:58;7.07;;;0.87;;
63699;SDS011;49845;47.130;142.766;2022-09-27T01:54:00;3.15;;;0.80;;
63699;SDS011;49845;47.130;142.766;2022-09-27T01:56:55;9.10;;;0.98;;
63699;SDS011;49845;47.130;142.766;2022-09-27T01:59:45;17.75;;;1.70;;
63699;SDS011;49845;47.130;142.766;2022-09-27T02:02:24;18.23;;;1.63;;
63699;SDS011;49845;47.130;142.766;2022-09-27T02:05:09;16.47;;;1.47;;
63699;SDS011;49845;47.130;142.766;2022-09-27T02:08:15;7.27;;;0.83;;
63699;SDS011;49845;47.130;142.766;2022-09-27T02:10:59;4.23;;;0.70;;
63699;SDS011;49845;47.130;142.766;2022-09-27T02:13:49;4.82;;;1.00;;
63699;SDS011;49845;47.130;142.766;2022-09-27T02:16:45;6.63;;;0.70;;
63699;SDS011;49845;47.130;142.766;2022-09-27T02:22:38;11.93;;;0.90;;
63699;SDS011;49845;47.130;142.766;2022-09-27T02:25:33;18.20;;;1.60;;
63699;SDS011;49845;47.130;142.766;2022-09-27T02:28:24;5.65;;;1.27;;
63699;SDS011;49845;47.130;142.766;2022-09-27T02:31:13;5.17;;;0.70;;
63699;SDS011;49845;47.130;142.766;2022-09-27T02:33:48;3.77;;;0.90;;
63699;SDS011;49845;47.130;142.766;2022-09-27T02:36:48;53.97;;;4.23;;
63699;SDS011;49845;47.130;142.766;2022-09-27T02:39:27;42.97;;;3.07;;
63699;SDS011;49845;47.130;142.766;2022-09-27T02:42:15;3.40;;;0.70;;
63699;SDS011;49845;47.130;142.766;2022-09-27T02:45:19;20.90;;;1.50;;
63699;SDS011;49845;47.130;142.766;2022-09-27T02:47:58;5.03;;;0.77;;
63699;SDS011;49845;47.130;142.766;2022-09-27T02:51:04;8.90;;;0.73;;
63699;SDS011;49845;47.130;142.766;2022-09-27T02:57:11;5.53;;;0.90;;
63699;SDS011;49845;47.130;142.766;2022-09-27T03:00:08;23.13;;;1.45;;
63699;SDS011;49845;47.130;142.766;2022-09-27T03:03:01;11.97;;;1.43;;
63699;SDS011;49845;47.130;142.766;2022-09-27T03:05:51;1.80;;;0.70;;
63699;SDS011;49845;47.130;142.766;2022-09-27T03:08:31;14.20;;;1.00;;
63699;SDS011;49845;47.130;142.766;2022-09-27T03:11:09;15.77;;;1.57;;
63699;SDS011;49845;47.130;142.766;2022-09-27T03:13:44;4.37;;;1.10;;
63699;SDS011;49845;47.130;142.766;2022-09-27T03:16:40;1.30;;;0.47;;
63699;SDS011;49845;47.130;142.766;2022-09-27T03:19:28;3.80;;;0.70;;
63699;SDS011;49845;47.130;142.766;2022-09-27T03:24:56;1.30;;;0.60;;
63699;SDS011;49845;47.130;142.766;2022-09-27T03:27:45;0.77;;;0.63;;
63699;SDS011;49845;47.130;142.766;2022-09-27T03:30:25;26.17;;;1.97;;
63699;SDS011;49845;47.130;142.766;2022-09-27T03:33:29;5.03;;;0.60;;
63699;SDS011;49845;47.130;142.766;2022-09-27T03:36:15;8.57;;;0.97;;
63699;SDS011;49845;47.130;142.766;2022-09-27T03:39:05;6.67;;;1.03;;
63699;SDS011;49845;47.130;142.766;2022-09-27T03:41:45;16.03;;;1.17;;
63699;SDS011;49845;47.130;142.766;2022-09-27T03:44:38;2.38;;;0.60;;
63699;SDS011;49845;47.130;142.766;2022-09-27T03:47:26;2.20;;;0.87;;
63699;SDS011;49845;47.130;142.766;2022-09-27T03:50:16;2.33;;;0.70;;
63699;SDS011;49845;47.130;142.766;2022-09-27T03:52:58;11.00;;;0.97;;
63699;SDS011;49845;47.130;142.766;2022-09-27T03:55:37;16.10;;;1.47;;
63699;SDS011;49845;47.130;142.766;2022-09-27T03:58:16;7.68;;;1.25;;
63699;SDS011;49845;47.130;142.766;2022-09-27T04:00:59;1.00;;;0.60;;
63699;SDS011;49845;47.130;142.766;2022-09-27T04:03:34;4.43;;;0.60;;
63699;SDS011;49845;47.130;142.766;2022-09-27T04:06:21;3.55;;;1.00;;
63699;SDS011;49845;47.130;142.766;2022-09-27T04:08:57;2.03;;;0.50;;
63699;SDS011;49845;47.130;142.766;2022-09-27T04:11:37;2.37;;;0.70;;
63699;SDS011;49845;47.130;142.766;2022-09-27T04:14:20;0.57;;;0.50;;
63699;SDS011;49845;47.130;142.766;2022-09-27T04:17:06;1.70;;;0.63;;
63699;SDS011;49845;47.130;142.766;2022-09-27T04:19:57;9.53;;;0.90;;
63699;SDS011;49845;47.130;142.766;2022-09-27T04:25:33;7.30;;;0.90;;
63699;SDS011;49845;47.130;142.766;2022-09-27T04:28:24;4.53;;;0.60;;
63699;SDS011;49845;47.130;142.766;2022-09-27T04:31:09;4.83;;;0.67;;
63699;SDS011;49845;47.130;142.766;2022-09-27T04:33:48;5.97;;;0.60;;
63699;SDS011;49845;47.130;142.766;2022-09-27T04:36:34;3.87;;;0.80;;
63699;SDS011;49845;47.130;142.766;2022-09-27T04:39:13;3.27;;;0.50;;
63699;SDS011;49845;47.130;142.766;2022-09-27T04:42:16;20.37;;;3.37;;
63699;SDS011;49845;47.130;142.766;2022-09-27T04:44:58;12.80;;;0.87;;
63699;SDS011;49845;47.130;142.766;2022-09-27T04:47:46;0.87;;;0.53;;
63699;SDS011;49845;47.130;142.766;2022-09-27T04:50:35;1.93;;;0.60;;
63699;SDS011;49845;47.130;142.766;2022-09-27T04:53:24;1.07;;;0.60;;
63699;SDS011;49845;47.130;142.766;2022-09-27T04:56:24;3.40;;;0.67;;
63699;SDS011;49845;47.130;142.766;2022-09-27T04:59:17;8.93;;;1.10;;
63699;SDS011;49845;47.130;142.766;2022-09-27T05:02:08;10.20;;;1.33;;
63699;SDS011;49845;47.130;142.766;2022-09-27T05:05:00;16.73;;;1.60;;
63699;SDS011;49845;47.130;142.766;2022-09-27T05:07:43;5.47;;;1.10;;
63699;SDS011;49845;47.130;142.766;2022-09-27T05:10:21;6.90;;;1.20;;
63699;SDS011;49845;47.130;142.766;2022-09-27T05:15:45;11.57;;;1.10;;
63699;SDS011;49845;47.130;142.766;2022-09-27T05:18:24;11.23;;;1.70;;
63699;SDS011;49845;47.130;142.766;2022-09-27T05:21:10;6.83;;;2.03;;
63699;SDS011;49845;47.130;142.766;2022-09-27T05:23:54;5.87;;;1.10;;
63699;SDS011;49845;47.130;142.766;2022-09-27T05:26:33;4.47;;;1.40;;
63699;SDS011;49845;47.130;142.766;2022-09-27T05:29:16;8.37;;;1.33;;
63699;SDS011;49845;47.130;142.766;2022-09-27T05:31:53;3.13;;;0.73;;
63699;SDS011;49845;47.130;142.766;2022-09-27T05:34:34;11.40;;;1.10;;
63699;SDS011;49845;47.130;142.766;2022-09-27T05:37:21;7.33;;;1.23;;
63699;SDS011;49845;47.130;142.766;2022-09-27T05:40:22;11.63;;;1.47;;
63699;SDS011;49845;47.130;142.766;2022-09-27T05:43:08;7.80;;;0.80;;
63699;SDS011;49845;47.130;142.766;2022-09-27T05:45:56;12.30;;;1.20;;
63699;SDS011;49845;47.130;142.766;2022-09-27T05:48:35;10.27;;;0.80;;
63699;SDS011;49845;47.130;142.766;2022-09-27T05:51:24;39.78;;;2.72;;
63699;SDS011;49845;47.130;142.766;2022-09-27T05:54:07;3.47;;;0.90;;
63699;SDS011;49845;47.130;142.766;2022-09-27T05:57:00;69.47;;;4.27;;
63699;SDS011;49845;47.130;142.766;2022-09-27T05:59:59;6.57;;;1.07;;
63699;SDS011;49845;47.130;142.766;2022-09-27T06:03:48;24.80;;;2.33;;
63699;SDS011;49845;47.130;142.766;2022-09-27T06:06:34;21.13;;;2.30;;
63699;SDS011;49845;47.130;142.766;2022-09-27T06:09:12;18.20;;;1.50;;
63699;SDS011;49845;47.130;142.766;2022-09-27T06:11:49;7.17;;;1.53;;
63699;SDS011;49845;47.130;142.766;2022-09-27T06:14:30;14.07;;;1.53;;
63699;SDS011;49845;47.130;142.766;2022-09-27T06:17:13;33.90;;;3.20;;
63699;SDS011;49845;47.130;142.766;2022-09-27T06:20:05;16.40;;;1.60;;
63699;SDS011;49845;47.130;142.766;2022-09-27T06:22:45;8.63;;;0.83;;
63699;SDS011;49845;47.130;142.766;2022-09-27T06:25:25;4.90;;;0.73;;
63699;SDS011;49845;47.130;142.766;2022-09-27T06:30:42;7.53;;;1.47;;
63699;SDS011;49845;47.130;142.766;2022-09-27T06:33:20;9.00;;;1.00;;
63699;SDS011;49845;47.130;142.766;2022-09-27T06:36:08;5.63;;;0.73;;
63699;SDS011;49845;47.130;142.766;2022-09-27T06:39:09;53.03;;;2.80;;
63699;SDS011;49845;47.130;142.766;2022-09-27T06:41:46;10.70;;;0.90;;
63699;SDS011;49845;47.130;142.766;2022-09-27T06:44:31;38.43;;;3.87;;
63699;SDS011;49845;47.130;142.766;2022-09-27T06:47:16;3.67;;;0.70;;
63699;SDS011;49845;47.130;142.766;2022-09-27T06:49:58;5.47;;;1.53;;
63699;SDS011;49845;47.130;142.766;2022-09-27T06:52:48;7.80;;;1.03;;
63699;SDS011;49845;47.130;142.766;2022-09-27T06:55:29;6.93;;;0.83;;
63699;SDS011;49845;47.130;142.766;2022-09-27T06:58:17;16.67;;;1.20;;
63699;SDS011;49845;47.130;142.766;2022-09-27T07:01:13;18.47;;;1.33;;
63699;SDS011;49845;47.130;142.766;2022-09-27T07:03:51;8.40;;;2.30;;
63699;SDS011;49845;47.130;142.766;2022-09-27T07:06:29;5.23;;;1.07;;
63699;SDS011;49845;47.130;142.766;2022-09-27T07:09:08;2.20;;;0.90;;
63699;SDS011;49845;47.130;142.766;2022-09-27T07:12:01;4.77;;;0.87;;
63699;SDS011;49845;47.130;142.766;2022-09-27T07:14:46;17.17;;;1.30;;
63699;SDS011;49845;47.130;142.766;2022-09-27T07:17:25;20.67;;;2.77;;
63699;SDS011;49845;47.130;142.766;2022-09-27T07:20:36;5.80;;;1.07;;
63699;SDS011;49845;47.130;142.766;2022-09-27T07:23:30;4.73;;;0.93;;
63699;SDS011;49845;47.130;142.766;2022-09-27T07:26:22;230.93;;;14.80;;
63699;SDS011;49845;47.130;142.766;2022-09-27T07:29:03;14.40;;;1.30;;
63699;SDS011;49845;47.130;142.766;2022-09-27T07:31:55;6.27;;;0.90;;
63699;SDS011;49845;47.130;142.766;2022-09-27T07:34:34;6.40;;;1.50;;
63699;SDS011;49845;47.130;142.766;2022-09-27T07:37:13;21.97;;;2.37;;
63699;SDS011;49845;47.130;142.766;2022-09-27T07:39:53;18.03;;;2.60;;
63699;SDS011;49845;47.130;142.766;2022-09-27T07:42:44;5.80;;;0.97;;
63699;SDS011;49845;47.130;142.766;2022-09-27T07:48:12;54.03;;;4.32;;
63699;SDS011;49845;47.130;142.766;2022-09-27T07:51:08;50.53;;;3.10;;
63699;SDS011;49845;47.130;142.766;2022-09-27T07:53:48;12.63;;;2.83;;
63699;SDS011;49845;47.130;142.766;2022-09-27T07:56:38;4.32;;;1.35;;
63699;SDS011;49845;47.130;142.766;2022-09-27T07:59:21;141.18;;;8.90;;
63699;SDS011;49845;47.130;142.766;2022-09-27T08:02:12;20.23;;;2.77;;
63699;SDS011;49845;47.130;142.766;2022-09-27T08:04:55;26.00;;;3.60;;
63699;SDS011;49845;47.130;142.766;2022-09-27T08:10:47;11.20;;;1.63;;
63699;SDS011;49845;47.130;142.766;2022-09-27T08:13:43;7.57;;;2.10;;
63699;SDS011;49845;47.130;142.766;2022-09-27T08:16:29;6.97;;;2.08;;
63699;SDS011;49845;47.130;142.766;2022-09-27T08:19:17;3.83;;;1.27;;
63699;SDS011;49845;47.130;142.766;2022-09-27T08:22:11;5.57;;;1.60;;
63699;SDS011;49845;47.130;142.766;2022-09-27T08:28:19;7.70;;;1.85;;
63699;SDS011;49845;47.130;142.766;2022-09-27T08:31:00;79.82;;;5.50;;
63699;SDS011;49845;47.130;142.766;2022-09-27T08:33:54;19.10;;;3.17;;
63699;SDS011;49845;47.130;142.766;2022-09-27T08:36:32;9.10;;;2.40;;
63699;SDS011;49845;47.130;142.766;2022-09-27T08:39:29;27.98;;;3.25;;
63699;SDS011;49845;47.130;142.766;2022-09-27T08:42:12;12.15;;;2.40;;
63699;SDS011;49845;47.130;142.766;2022-09-27T08:45:10;17.27;;;1.63;;
63699;SDS011;49845;47.130;142.766;2022-09-27T08:48:02;9.98;;;2.10;;
63699;SDS011;49845;47.130;142.766;2022-09-27T08:50:46;42.35;;;3.53;;
63699;SDS011;49845;47.130;142.766;2022-09-27T08:53:24;62.95;;;37.13;;
63699;SDS011;49845;47.130;142.766;2022-09-27T08:56:07;82.55;;;46.70;;
63699;SDS011;49845;47.130;142.766;2022-09-27T08:58:54;72.80;;;35.63;;
63699;SDS011;49845;47.130;142.766;2022-09-27T09:01:50;44.88;;;10.48;;
63699;SDS011;49845;47.130;142.766;2022-09-27T09:04:27;11.63;;;6.40;;
63699;SDS011;49845;47.130;142.766;2022-09-27T09:10:43;134.00;;;13.18;;
63699;SDS011;49845;47.130;142.766;2022-09-27T09:14:19;35.67;;;11.88;;
63699;SDS011;49845;47.130;142.766;2022-09-27T09:17:17;37.08;;;6.72;;
63699;SDS011;49845;47.130;142.766;2022-09-27T09:20:20;132.07;;;11.77;;
63699;SDS011;49845;47.130;142.766;2022-09-27T09:26:31;17.10;;;2.20;;
63699;SDS011;49845;47.130;142.766;2022-09-27T09:29:27;14.85;;;1.77;;
63699;SDS011;49845;47.130;142.766;2022-09-27T09:32:45;60.17;;;4.15;;
63699;SDS011;49845;47.130;142.766;2022-09-27T09:35:46;21.27;;;2.00;;
63699;SDS011;49845;47.130;142.766;2022-09-27T09:38:33;26.33;;;2.58;;
63699;SDS011;49845;47.130;142.766;2022-09-27T09:41:14;13.35;;;1.60;;
63699;SDS011;49845;47.130;142.766;2022-09-27T09:44:12;2.25;;;0.93;;
63699;SDS011;49845;47.130;142.766;2022-09-27T09:47:11;5.32;;;1.95;;
63699;SDS011;49845;47.130;142.766;2022-09-27T09:50:10;85.88;;;11.02;;
63699;SDS011;49845;47.130;142.766;2022-09-27T09:52:52;11.90;;;6.20;;
63699;SDS011;49845;47.130;142.766;2022-09-27T09:55:32;10.18;;;3.72;;
63699;SDS011;49845;47.130;142.766;2022-09-27T09:58:43;10.35;;;7.57;;
63699;SDS011;49845;47.130;142.766;2022-09-27T10:01:39;7.57;;;1.58;;
63699;SDS011;49845;47.130;142.766;2022-09-27T10:04:35;1.50;;;0.93;;
63699;SDS011;49845;47.130;142.766;2022-09-27T10:07:23;6.45;;;1.20;;
63699;SDS011;49845;47.130;142.766;2022-09-27T10:10:05;2.08;;;0.93;;
63699;SDS011;49845;47.130;142.766;2022-09-27T10:12:48;26.92;;;2.40;;
63699;SDS011;49845;47.130;142.766;2022-09-27T10:15:36;8.55;;;1.38;;
63699;SDS011;49845;47.130;142.766;2022-09-27T10:18:23;3.25;;;0.82;;
63699;SDS011;49845;47.130;142.766;2022-09-27T10:21:27;3.10;;;1.10;;
63699;SDS011;49845;47.130;142.766;2022-09-27T10:24:08;2.15;;;0.90;;
63699;SDS011;49845;47.130;142.766;2022-09-27T10:27:01;4.00;;;1.70;;
63699;SDS011;49845;47.130;142.766;2022-09-27T10:29:45;1.98;;;1.60;;
63699;SDS011;49845;47.130;142.766;2022-09-27T10:32:32;4.05;;;1.98;;
63699;SDS011;49845;47.130;142.766;2022-09-27T10:35:30;8.00;;;2.40;;
63699;SDS011;49845;47.130;142.766;2022-09-27T10:38:22;3.08;;;2.00;;
63699;SDS011;49845;47.130;142.766;2022-09-27T10:41:16;16.00;;;2.15;;
63699;SDS011;49845;47.130;142.766;2022-09-27T10:44:18;23.50;;;3.33;;
63699;SDS011;49845;47.130;142.766;2022-09-27T10:47:12;41.88;;;4.00;;
63699;SDS011;49845;47.130;142.766;2022-09-27T10:50:01;38.90;;;6.78;;
63699;SDS011;49845;47.130;142.766;2022-09-27T10:53:21;17.55;;;3.17;;
63699;SDS011;49845;47.130;142.766;2022-09-27T10:56:08;11.23;;;2.35;;
63699;SDS011;49845;47.130;142.766;2022-09-27T10:59:05;44.78;;;5.70;;
63699;SDS011;49845;47.130;142.766;2022-09-27T11:02:01;33.30;;;7.85;;
63699;SDS011;49845;47.130;142.766;2022-09-27T11:08:19;19.08;;;6.57;;
63699;SDS011;49845;47.130;142.766;2022-09-27T11:11:06;27.45;;;4.03;;
63699;SDS011;49845;47.130;142.766;2022-09-27T11:14:15;17.10;;;3.30;;
63699;SDS011;49845;47.130;142.766;2022-09-27T11:17:03;27.05;;;3.65;;
63699;SDS011;49845;47.130;142.766;2022-09-27T11:19:59;8.10;;;2.92;;
63699;SDS011;49845;47.130;142.766;2022-09-27T11:23:17;8.73;;;2.65;;
63699;SDS011;49845;47.130;142.766;2022-09-27T11:26:29;20.52;;;5.22;;
63699;SDS011;49845;47.130;142.766;2022-09-27T11:29:18;12.68;;;2.95;;
63699;SDS011;49845;47.130;142.766;2022-09-27T11:32:12;6.93;;;2.25;;
63699;SDS011;49845;47.130;142.766;2022-09-27T11:35:25;7.70;;;2.50;;
63699;SDS011;49845;47.130;142.766;2022-09-27T11:38:20;10.45;;;2.88;;
63699;SDS011;49845;47.130;142.766;2022-09-27T11:41:41;7.43;;;2.45;;
63699;SDS011;49845;47.130;142.766;2022-09-27T11:44:52;20.60;;;3.30;;
63699;SDS011;49845;47.130;142.766;2022-09-27T11:48:19;10.00;;;2.80;;
63699;SDS011;49845;47.130;142.766;2022-09-27T11:51:28;13.57;;;2.80;;
63699;SDS011;49845;47.130;142.766;2022-09-27T11:58:07;12.13;;;5.40;;
63699;SDS011;49845;47.130;142.766;2022-09-27T12:01:09;14.45;;;7.15;;
63699;SDS011;49845;47.130;142.766;2022-09-27T12:04:07;22.98;;;6.38;;
63699;SDS011;49845;47.130;142.766;2022-09-27T12:07:32;13.13;;;5.82;;
63699;SDS011;49845;47.130;142.766;2022-09-27T12:10:28;14.68;;;6.40;;
63699;SDS011;49845;47.130;142.766;2022-09-27T12:13:09;17.02;;;10.48;;
63699;SDS011;49845;47.130;142.766;2022-09-27T12:15:54;16.88;;;6.95;;
63699;SDS011;49845;47.130;142.766;2022-09-27T12:18:53;6.43;;;2.83;;
63699;SDS011;49845;47.130;142.766;2022-09-27T12:21:57;6.95;;;2.60;;
63699;SDS011;49845;47.130;142.766;2022-09-27T12:25:15;2.97;;;1.80;;
63699;SDS011;49845;47.130;142.766;2022-09-27T12:28:11;3.47;;;1.83;;
63699;SDS011;49845;47.130;142.766;2022-09-27T12:31:12;5.22;;;2.10;;
63699;SDS011;49845;47.130;142.766;2022-09-27T12:34:03;4.18;;;1.73;;
63699;SDS011;49845;47.130;142.766;2022-09-27T12:37:01;2.88;;;1.30;;
63699;SDS011;49845;47.130;142.766;2022-09-27T12:39:51;3.47;;;1.80;;
63699;SDS011;49845;47.130;142.766;2022-09-27T12:42:31;8.07;;;1.60;;
63699;SDS011;49845;47.130;142.766;2022-09-27T12:45:15;3.45;;;1.45;;
63699;SDS011;49845;47.130;142.766;2022-09-27T12:48:09;6.45;;;1.50;;
63699;SDS011;49845;47.130;142.766;2022-09-27T12:51:00;9.32;;;1.98;;
63699;SDS011;49845;47.130;142.766;2022-09-27T12:53:59;3.60;;;1.58;;
63699;SDS011;49845;47.130;142.766;2022-09-27T12:56:58;5.78;;;1.90;;
63699;SDS011;49845;47.130;142.766;2022-09-27T13:00:08;5.18;;;1.60;;
63699;SDS011;49845;47.130;142.766;2022-09-27T13:06:07;8.02;;;2.05;;
63699;SDS011;49845;47.130;142.766;2022-09-27T13:09:13;7.15;;;2.00;;
63699;SDS011;49845;47.130;142.766;2022-09-27T13:12:17;2.35;;;1.50;;
63699;SDS011;49845;47.130;142.766;2022-09-27T13:15:13;2.28;;;1.60;;
63699;SDS011;49845;47.130;142.766;2022-09-27T13:17:59;4.60;;;1.50;;
63699;SDS011;49845;47.130;142.766;2022-09-27T13:21:06;14.65;;;2.10;;
63699;SDS011;49845;47.130;142.766;2022-09-27T13:23:55;7.50;;;1.60;;
63699;SDS011;49845;47.130;142.766;2022-09-27T13:26:43;3.95;;;1.80;;
63699;SDS011;49845;47.130;142.766;2022-09-27T13:29:26;11.25;;;2.30;;
63699;SDS011;49845;47.130;142.766;2022-09-27T13:35:10;6.78;;;2.30;;
63699;SDS011;49845;47.130;142.766;2022-09-27T13:38:17;10.98;;;2.80;;
63699;SDS011;49845;47.130;142.766;2022-09-27T13:41:12;11.30;;;3.40;;
63699;SDS011;49845;47.130;142.766;2022-09-27T13:44:06;13.35;;;4.25;;
63699;SDS011;49845;47.130;142.766;2022-09-27T13:46:49;15.85;;;4.55;;
63699;SDS011;49845;47.130;142.766;2022-09-27T13:49:29;11.10;;;4.70;;
63699;SDS011;49845;47.130;142.766;2022-09-27T13:52:24;22.48;;;5.18;;
63699;SDS011;49845;47.130;142.766;2022-09-27T13:55:36;16.15;;;5.18;;
63699;SDS011;49845;47.130;142.766;2022-09-27T14:01:25;16.23;;;5.47;;
63699;SDS011;49845;47.130;142.766;2022-09-27T14:04:15;16.67;;;5.50;;
63699;SDS011;49845;47.130;142.766;2022-09-27T14:07:09;12.32;;;4.82;;
63699;SDS011;49845;47.130;142.766;2022-09-27T14:09:51;16.67;;;4.78;;
63699;SDS011;49845;47.130;142.766;2022-09-27T14:12:45;16.45;;;4.47;;
63699;SDS011;49845;47.130;142.766;2022-09-27T14:15:28;11.10;;;4.28;;
63699;SDS011;49845;47.130;142.766;2022-09-27T14:18:42;14.30;;;5.10;;
63699;SDS011;49845;47.130;142.766;2022-09-27T14:21:30;12.70;;;4.32;;
63699;SDS011;49845;47.130;142.766;2022-09-27T14:24:22;15.15;;;5.43;;
63699;SDS011;49845;47.130;142.766;2022-09-27T14:27:35;19.15;;;5.38;;
63699;SDS011;49845;47.130;142.766;2022-09-27T14:30:21;13.43;;;4.82;;
63699;SDS011;49845;47.130;142.766;2022-09-27T14:35:34;22.25;;;4.22;;
63699;SDS011;49845;47.130;142.766;2022-09-27T14:38:41;7.40;;;3.70;;
63699;SDS011;49845;47.130;142.766;2022-09-27T14:41:47;8.70;;;3.80;;
63699;SDS011;49845;47.130;142.766;2022-09-27T14:44:39;13.10;;;4.15;;
63699;SDS011;49845;47.130;142.766;2022-09-27T14:50:28;10.55;;;4.30;;
63699;SDS011;49845;47.130;142.766;2022-09-27T14:53:20;12.23;;;3.33;;
63699;SDS011;49845;47.130;142.766;2022-09-27T14:56:08;10.85;;;3.13;;
63699;SDS011;49845;47.130;142.766;2022-09-27T14:58:53;10.90;;;3.38;;
63699;SDS011;49845;47.130;142.766;2022-09-27T15:01:47;8.82;;;2.90;;
63699;SDS011;49845;47.130;142.766;2022-09-27T15:04:49;7.15;;;2.88;;
63699;SDS011;49845;47.130;142.766;2022-09-27T15:07:26;9.50;;;3.35;;
63699;SDS011;49845;47.130;142.766;2022-09-27T15:10:16;10.18;;;2.72;;
63699;SDS011;49845;47.130;142.766;2022-09-27T15:13:04;10.85;;;3.35;;
63699;SDS011;49845;47.130;142.766;2022-09-27T15:16:05;11.82;;;3.40;;
63699;SDS011;49845;47.130;142.766;2022-09-27T15:18:57;8.63;;;2.83;;
63699;SDS011;49845;47.130;142.766;2022-09-27T15:21:48;13.02;;;3.50;;
63699;SDS011;49845;47.130;142.766;2022-09-27T15:25:02;7.55;;;3.10;;
63699;SDS011;49845;47.130;142.766;2022-09-27T15:28:55;8.38;;;3.65;;
63699;SDS011;49845;47.130;142.766;2022-09-27T15:31:57;16.33;;;3.90;;
63699;SDS011;49845;47.130;142.766;2022-09-27T15:34:43;12.93;;;3.95;;
63699;SDS011;49845;47.130;142.766;2022-09-27T15:37:33;14.98;;;4.20;;
63699;SDS011;49845;47.130;142.766;2022-09-27T15:43:35;11.20;;;3.90;;
63699;SDS011;49845;47.130;142.766;2022-09-27T15:46:26;9.20;;;3.50;;
63699;SDS011;49845;47.130;142.766;2022-09-27T15:49:21;8.23;;;3.53;;
63699;SDS011;49845;47.130;142.766;2022-09-27T15:52:15;9.68;;;3.08;;
63699;SDS011;49845;47.130;142.766;2022-09-27T15:55:27;10.30;;;3.38;;
63699;SDS011;49845;47.130;142.766;2022-09-27T15:58:22;8.15;;;3.20;;
63699;SDS011;49845;47.130;142.766;2022-09-27T16:01:06;13.48;;;3.17;;
63699;SDS011;49845;47.130;142.766;2022-09-27T16:03:52;7.72;;;3.40;;
63699;SDS011;49845;47.130;142.766;2022-09-27T16:09:23;6.20;;;2.38;;
63699;SDS011;49845;47.130;142.766;2022-09-27T16:12:20;9.18;;;2.10;;
63699;SDS011;49845;47.130;142.766;2022-09-27T16:15:01;7.47;;;2.35;;
63699;SDS011;49845;47.130;142.766;2022-09-27T16:17:49;4.43;;;1.90;;
63699;SDS011;49845;47.130;142.766;2022-09-27T16:20:30;5.25;;;2.42;;
63699;SDS011;49845;47.130;142.766;2022-09-27T16:23:09;6.45;;;2.40;;
63699;SDS011;49845;47.130;142.766;2022-09-27T16:28:51;5.90;;;2.25;;
63699;SDS011;49845;47.130;142.766;2022-09-27T16:31:36;4.22;;;2.17;;
63699;SDS011;49845;47.130;142.766;2022-09-27T16:34:16;8.27;;;2.47;;
63699;SDS011;49845;47.130;142.766;2022-09-27T16:37:20;5.95;;;2.78;;
63699;SDS011;49845;47.130;142.766;2022-09-27T16:39:57;9.95;;;3.03;;
63699;SDS011;49845;47.130;142.766;2022-09-27T16:45:45;4.45;;;2.08;;
63699;SDS011;49845;47.130;142.766;2022-09-27T16:48:24;7.75;;;2.85;;
63699;SDS011;49845;47.130;142.766;2022-09-27T16:51:05;6.60;;;2.78;;
63699;SDS011;49845;47.130;142.766;2022-09-27T16:53:58;9.18;;;2.42;;
63699;SDS011;49845;47.130;142.766;2022-09-27T16:56:40;8.90;;;2.40;;
63699;SDS011;49845;47.130;142.766;2022-09-27T16:59:27;6.95;;;2.25;;
63699;SDS011;49845;47.130;142.766;2022-09-27T17:02:20;4.50;;;2.10;;
63699;SDS011;49845;47.130;142.766;2022-09-27T17:04:57;7.18;;;2.42;;
63699;SDS011;49845;47.130;142.766;2022-09-27T17:07:40;5.63;;;2.47;;
63699;SDS011;49845;47.130;142.766;2022-09-27T17:10:31;5.05;;;2.95;;
63699;SDS011;49845;47.130;142.766;2022-09-27T17:13:18;6.05;;;2.10;;
63699;SDS011;49845;47.130;142.766;2022-09-27T17:19:07;4.07;;;2.20;;
63699;SDS011;49845;47.130;142.766;2022-09-27T17:21:58;6.15;;;2.28;;
63699;SDS011;49845;47.130;142.766;2022-09-27T17:25:04;6.30;;;2.28;;
63699;SDS011;49845;47.130;142.766;2022-09-27T17:27:50;6.15;;;2.45;;
63699;SDS011;49845;47.130;142.766;2022-09-27T17:30:45;6.70;;;2.80;;
63699;SDS011;49845;47.130;142.766;2022-09-27T17:33:35;8.02;;;2.28;;
63699;SDS011;49845;47.130;142.766;2022-09-27T17:36:20;5.82;;;2.00;;
63699;SDS011;49845;47.130;142.766;2022-09-27T17:39:10;5.70;;;2.20;;
63699;SDS011;49845;47.130;142.766;2022-09-27T17:41:51;8.60;;;2.30;;
63699;SDS011;49845;47.130;142.766;2022-09-27T17:44:29;8.90;;;2.35;;
63699;SDS011;49845;47.130;142.766;2022-09-27T17:47:08;4.70;;;2.15;;
63699;SDS011;49845;47.130;142.766;2022-09-27T17:50:05;5.30;;;2.10;;
63699;SDS011;49845;47.130;142.766;2022-09-27T17:53:05;3.75;;;1.70;;
63699;SDS011;49845;47.130;142.766;2022-09-27T17:55:44;4.22;;;1.65;;
63699;SDS011;49845;47.130;142.766;2022-09-27T17:58:46;5.13;;;1.92;;